Etusivu
METAR-TAF:

METAR-TAF

Lentoasemat :

Hammond Northshore Regional Airport

Hammond, Louisiana, Yhdysvallat

Leveyspiiri: 30-31-15N, Pituuspiiri: 090-25-03W, korkeus merenpinnasta: 13 m

Tämänhetkinen sää

Tämä raportti tehtiin 24 minuuttia sitten, kello 09.15 UTC
tyyntä
Lämpötila 1°C
Kosteus 93%
Ilmanpaine 1031 hPa
Näkyvyys: 16.1 km
selkeää

METAR: KHDC 080915Z AUTO 00000KT 10SM CLR 01/00 A3044 RMK AO2

Aika: 03:39 (09:39 UTC)

Sääennuste

Tämä raportti tehtiin 4 tuntia ja 18 minuuttia sitten, kello 05.21 UTC
Ennuste voimassa 08. päivästä klo 06 UTC - 09. päivään klo 06 UTC
Tuuli 3 kn eri suunnista
Näkyvyys: 10 km
selkeää
From 08. päivästä klo 1800 UTC
Tuuli 8 kn kaakosta
Näkyvyys: 10 km
selkeää
From 09. päivästä klo 0000 UTC
Tuuli 3 kn eri suunnista
Näkyvyys: 10 km
selkeää

TAF: KHDC 080521Z 0806/0906 VRB03KT P6SM SKC FM081800 13008KT P6SM SKC FM090000 VRB03KT P6SM SKC

Säähavainnot ja -ennusteet yli 4000 lentoasemalta (METAR- ja TAF-raportit).

Käytössä olevat sääasemat on merkitty karttaan keltaisilla ja punaisilla pisteillä.

Aseta hiiri pisteen päälle nähdäksesi sääaseman nimen.

Klikkaa sitten nähdäksesi säähavainnot ja -ennusteet.

Kartan vaihtaminen: klikkaa mustalla rastilla varustettuja vihreitä pisteitä, niin voit zoomata sisään; viivalla varustettua vihreää pistettä, niin voit zoomata ulos tai vihreitä nuolia, niin pääset viereisille kartoille.


METAR-TAF: